PWSweather.com
Personal Weather Stations
Station Observations
KMNMADEL2
West Of High School, Madelia, MN 56062

West Of High SchoolMadelia, MN 56062

Lat: 44.04636, Lon: -94.4163437

Elevation: 1006

Station Type: Wireless Davis Instruments Vantage Pro2 Plus

http://www.madeliasliveweather.com/

Latest ConditionsUpdated 2:15:02 AM CST Friday, Feb 24, 2017
Currently Today's Max Today's Min Today's Average
Temperature 27.2°F-2.7°C 28.2°F-2.1°C 27.1°F-2.7°C 27.6°F-2.4°C
Dew Point 24.9°F-3.9°C 25.9°F-3.4°C 24.8°F-4.0°C 25.3°F-3.7°C
Winds 11.0 mph ESE17.7 kmh ESE 11.0 mph ESE17.7 kmh ESE - 4.2 mph 6.8 kmh
Wind Gusts 16.0 mph25.7 kmh 16.0 mph25.7 kmh - -
Humidity 91% 91% 91% 91%
Pressure 29.86 in1011.2 mb 29.86 in1011.2 mb 29.82 in1009.8 mb -
Hour Temp Dew Point Humidity Winds Wind Gusts Pressure Precip Precip Rate Daily Precip Total
02:15 AM 27.2°F-2.7°C 24.9°F-3.9°C 91% 11.0 mph ESE17.7 kmh ESE 16.0 mph25.7 kmh 29.86 in1011.2 mb 0.00 in0.0 mm 0.00 in0.0 mm 0.00 in0.0 mm
02:10 AM 27.1°F-2.7°C 24.8°F-4.0°C 91% 8.0 mph ENE12.9 kmh ENE 11.0 mph17.7 kmh 29.86 in1011.2 mb 0.00 in0.0 mm 0.00 in0.0 mm 0.00 in0.0 mm
02:05 AM 27.1°F-2.7°C 24.8°F-4.0°C 91% 3.0 mph NE4.8 kmh NE 10.0 mph16.1 kmh 29.85 in1010.8 mb 0.00 in0.0 mm 0.00 in0.0 mm 0.00 in0.0 mm
02:00 AM 27.1°F-2.7°C 24.8°F-4.0°C 91% 4.0 mph NE6.4 kmh NE 10.0 mph16.1 kmh 29.86 in1011.2 mb 0.00 in0.0 mm 0.00 in0.0 mm 0.00 in0.0 mm
01:55 AM 27.1°F-2.7°C 24.8°F-4.0°C 91% 3.0 mph NE4.8 kmh NE 14.0 mph22.5 kmh 29.85 in1010.8 mb 0.00 in0.0 mm 0.00 in0.0 mm 0.00 in0.0 mm
01:50 AM 27.1°F-2.7°C 24.8°F-4.0°C 91% 6.0 mph N9.7 kmh N 14.0 mph22.5 kmh 29.85 in1010.8 mb 0.00 in0.0 mm 0.00 in0.0 mm 0.00 in0.0 mm
01:45 AM 27.1°F-2.7°C 24.8°F-4.0°C 91% 2.0 mph ENE3.2 kmh ENE 14.0 mph22.5 kmh 29.84 in1010.5 mb 0.00 in0.0 mm 0.00 in0.0 mm 0.00 in0.0 mm
01:40 AM 27.2°F-2.7°C 24.9°F-3.9°C 91% 2.0 mph NE3.2 kmh NE 14.0 mph22.5 kmh 29.83 in1010.2 mb 0.00 in0.0 mm 0.00 in0.0 mm 0.00 in0.0 mm
01:35 AM 27.3°F-2.6°C 25.0°F-3.9°C 91% 6.0 mph NW9.7 kmh NW 14.0 mph22.5 kmh 29.83 in1010.2 mb 0.00 in0.0 mm 0.00 in0.0 mm 0.00 in0.0 mm
01:30 AM 27.4°F-2.6°C 25.1°F-3.8°C 91% 3.0 mph ENE4.8 kmh ENE 11.0 mph17.7 kmh 29.82 in1009.8 mb 0.00 in0.0 mm 0.00 in0.0 mm 0.00 in0.0 mm
01:25 AM 27.5°F-2.5°C 25.2°F-3.8°C 91% 6.0 mph N9.7 kmh N 12.0 mph19.3 kmh 29.83 in1010.2 mb 0.00 in0.0 mm 0.00 in0.0 mm 0.00 in0.0 mm
01:20 AM 27.4°F-2.6°C 25.1°F-3.8°C 91% 4.0 mph NE6.4 kmh NE 12.0 mph19.3 kmh 29.83 in1010.2 mb 0.00 in0.0 mm 0.00 in0.0 mm 0.00 in0.0 mm
01:15 AM 27.4°F-2.6°C 25.1°F-3.8°C 91% 2.0 mph NE3.2 kmh NE 12.0 mph19.3 kmh 29.83 in1010.2 mb 0.00 in0.0 mm 0.00 in0.0 mm 0.00 in0.0 mm
01:10 AM 27.4°F-2.6°C 25.1°F-3.8°C 91% 4.0 mph NE6.4 kmh NE 12.0 mph19.3 kmh 29.83 in1010.2 mb 0.00 in0.0 mm 0.00 in0.0 mm 0.00 in0.0 mm
01:05 AM 27.5°F-2.5°C 25.2°F-3.8°C 91% 7.0 mph NNE11.3 kmh NNE 12.0 mph19.3 kmh 29.83 in1010.2 mb 0.00 in0.0 mm 0.00 in0.0 mm 0.00 in0.0 mm
01:00 AM 27.7°F-2.4°C 25.4°F-3.7°C 91% 3.0 mph E4.8 kmh E 12.0 mph19.3 kmh 29.84 in1010.5 mb 0.00 in0.0 mm 0.00 in0.0 mm 0.00 in0.0 mm
12:55 AM 27.7°F-2.4°C 25.4°F-3.7°C 91% 3.0 mph NNW4.8 kmh NNW 12.0 mph19.3 kmh 29.84 in1010.5 mb 0.00 in0.0 mm 0.00 in0.0 mm 0.00 in0.0 mm
12:50 AM 27.8°F-2.3°C 25.5°F-3.6°C 91% 2.0 mph NE3.2 kmh NE 12.0 mph19.3 kmh 29.84 in1010.5 mb 0.00 in0.0 mm 0.00 in0.0 mm 0.00 in0.0 mm
12:45 AM 27.8°F-2.3°C 25.5°F-3.6°C 91% 4.0 mph NE6.4 kmh NE 12.0 mph19.3 kmh 29.84 in1010.5 mb 0.00 in0.0 mm 0.00 in0.0 mm 0.00 in0.0 mm
12:40 AM 27.9°F-2.3°C 25.6°F-3.6°C 91% 8.0 mph ENE12.9 kmh ENE 12.0 mph19.3 kmh 29.84 in1010.5 mb 0.00 in0.0 mm 0.00 in0.0 mm 0.00 in0.0 mm
12:35 AM 27.9°F-2.3°C 25.6°F-3.6°C 91% 2.0 mph NE3.2 kmh NE 12.0 mph19.3 kmh 29.84 in1010.5 mb 0.00 in0.0 mm 0.00 in0.0 mm 0.00 in0.0 mm
12:30 AM 28.0°F-2.2°C 25.7°F-3.5°C 91% 2.0 mph N3.2 kmh N 12.0 mph19.3 kmh 29.84 in1010.5 mb 0.00 in0.0 mm 0.00 in0.0 mm 0.00 in0.0 mm
12:25 AM 28.1°F-2.2°C 25.8°F-3.4°C 91% 7.0 mph E11.3 kmh E 14.0 mph22.5 kmh 29.84 in1010.5 mb 0.00 in0.0 mm 0.00 in0.0 mm 0.00 in0.0 mm
12:20 AM 28.1°F-2.2°C 25.8°F-3.4°C 91% 5.0 mph N8.0 kmh N 14.0 mph22.5 kmh 29.85 in1010.8 mb 0.00 in0.0 mm 0.00 in0.0 mm 0.00 in0.0 mm
12:15 AM 28.1°F-2.2°C 25.8°F-3.4°C 91% 3.0 mph NE4.8 kmh NE 14.0 mph22.5 kmh 29.84 in1010.5 mb 0.00 in0.0 mm 0.00 in0.0 mm 0.00 in0.0 mm
12:10 AM 28.1°F-2.2°C 25.8°F-3.4°C 91% 4.0 mph ENE6.4 kmh ENE 11.0 mph17.7 kmh 29.85 in1010.8 mb 0.00 in0.0 mm 0.00 in0.0 mm 0.00 in0.0 mm
12:05 AM 28.2°F-2.1°C 25.9°F-3.4°C 91% 2.0 mph NNE3.2 kmh NNE 11.0 mph17.7 kmh 29.84 in1010.5 mb 0.00 in0.0 mm 0.00 in0.0 mm 0.00 in0.0 mm
12:00 AM 28.2°F-2.1°C 25.9°F-3.4°C 91% 1.0 mph N1.6 kmh N 9.0 mph14.5 kmh 29.84 in1010.5 mb 0.00 in0.0 mm 0.00 in0.0 mm 0.00 in0.0 mm